Terminal Aerodrome Forecast
Issued by NWS

Home | Current Version | Previous Version | Text Only | Print | Product List | Glossary On
Versions: 1 2 3 4 5 6 7 8 9 10 11 12 13 14 15 16 17 18 19 20 21 22 23 24 25 26
845
FTUS41 KOKX 131418 AAB
TAFGON
TAF AMD
KGON 131418Z 1314/1412 32015G23KT P6SM SCT090 BKN150
     FM131700 31017G28KT P6SM BKN050
     FM132000 32020G34KT P6SM BKN050
     FM132300 32020G35KT P6SM SCT200
     FM141100 32016G28KT P6SM FEW250=

USA.gov is the U.S. government's official web portal to all federal, state and local government web resources and services.